Time;durP1;ratioP1;P1;durP2;ratioP2;P2;SDS_P1;SDS_P2;PMS_P1;PMS_P2;Temp;Humidity;BMP_temperature;BMP_pressure;BME280_temperature;BME280_humidity;BME280_pressure;Samples;Min_cycle;Max_cycle;Signal;HPM_P1;HPM_P2
2021/11/08 00:00:32;;;;;;;23.00;15.20;;;;;;;8.58;85.80;100656.07;1625184;88;21381;-58
2021/11/08 00:03:41;;;;;;;21.90;14.78;;;;;;;8.61;85.54;100651.69;1625184;87;21224;-58
2021/11/08 00:06:46;;;;;;;25.08;16.05;;;;;;;8.64;85.45;100646.75;1625281;88;21433;-58
2021/11/08 00:09:52;;;;;;;30.00;17.07;;;;;;;8.67;85.37;100645.60;1625199;88;21409;-58
2021/11/08 00:12:58;;;;;;;23.45;16.37;;;;;;;8.69;85.24;100642.18;1625289;87;21244;-57
2021/11/08 00:19:29;;;;;;;23.85;17.42;;;;;;;8.73;85.13;100632.69;1625148;87;21259;-57
2021/11/08 00:22:20;;;;;;;23.65;16.67;;;;;;;8.75;85.05;100626.56;1625241;87;21219;-57
2021/11/08 00:25:29;;;;;;;22.85;17.25;;;;;;;8.76;85.01;100619.58;1625168;88;21188;-58
2021/11/08 00:28:35;;;;;;;22.58;16.37;;;;;;;8.80;84.93;100617.40;1625206;87;21434;-58
2021/11/08 00:31:44;;;;;;;24.65;16.12;;;;;;;8.83;84.85;100616.55;1625185;88;21363;-57
2021/11/08 00:34:52;;;;;;;22.95;16.23;;;;;;;8.87;84.75;100616.59;1625307;88;21225;-58
2021/11/08 00:37:58;;;;;;;23.95;17.07;;;;;;;8.91;84.58;100607.59;1625297;87;21370;-58
2021/11/08 00:41:04;;;;;;;26.82;16.80;;;;;;;8.94;84.40;100607.27;1625235;88;21232;-56
2021/11/08 00:44:11;;;;;;;26.10;16.67;;;;;;;8.96;84.21;100601.98;1625143;87;21374;-57
2021/11/08 00:47:19;;;;;;;24.55;17.30;;;;;;;8.96;83.98;100599.25;1640855;85;21364;-56
2021/11/08 00:50:27;;;;;;;24.43;17.25;;;;;;;8.95;83.90;100598.91;1655901;85;21427;-58
2021/11/08 00:53:34;;;;;;;23.30;17.40;;;;;;;8.97;83.82;100589.19;1658451;85;21407;-58
2021/11/08 00:56:47;;;;;;;29.80;18.95;;;;;;;8.97;83.82;100583.73;1658238;85;21343;-57
2021/11/08 00:59:53;;;;;;;29.45;20.20;;;;;;;8.95;83.77;100570.25;1657046;86;21224;-57
2021/11/08 01:03:02;;;;;;;26.07;18.62;;;;;;;8.93;83.72;100557.25;1653412;85;21394;-57
2021/11/08 01:06:08;;;;;;;27.73;19.05;;;;;;;8.89;83.84;100545.45;1656066;86;21212;-57
2021/11/08 01:09:14;;;;;;;31.87;20.15;;;;;;;8.85;84.04;100536.73;1657588;85;21268;-57
2021/11/08 01:12:20;;;;;;;28.85;20.68;;;;;;;8.84;84.30;100536.89;1659057;84;21280;-57
2021/11/08 01:15:26;;;;;;;25.70;18.30;;;;;;;8.81;84.56;100531.26;1646255;85;21346;-57
2021/11/08 01:18:31;;;;;;;30.90;21.23;;;;;;;8.81;84.82;100519.47;1658475;85;21539;-57
2021/11/08 01:21:38;;;;;;;24.47;17.20;;;;;;;8.80;85.07;100511.78;1657108;85;21355;-57
2021/11/08 01:24:57;;;;;;;27.48;18.67;;;;;;;8.82;85.31;100510.25;1658125;85;21346;-57
2021/11/08 01:28:04;;;;;;;28.02;19.57;;;;;;;8.84;85.43;100515.92;1655952;85;21370;-57
2021/11/08 01:31:14;;;;;;;25.85;18.98;;;;;;;8.86;85.53;100516.59;1656147;85;21433;-57
2021/11/08 01:34:21;;;;;;;30.90;20.92;;;;;;;8.89;85.62;100510.84;1656971;85;21212;-57
2021/11/08 01:37:29;;;;;;;31.62;22.07;;;;;;;8.90;85.66;100517.12;1656441;85;21237;-57
2021/11/08 01:40:35;;;;;;;30.68;22.10;;;;;;;8.93;85.71;100515.44;1657333;85;21757;-57
2021/11/08 01:43:41;;;;;;;33.18;23.57;;;;;;;8.94;85.77;100509.81;1659382;85;21221;-57
2021/11/08 01:46:46;;;;;;;35.63;24.72;;;;;;;8.97;85.78;100516.31;1656696;86;21229;-56
2021/11/08 01:49:52;;;;;;;37.15;26.00;;;;;;;8.99;85.77;100512.92;1655103;86;21271;-57
2021/11/08 01:52:59;;;;;;;35.38;24.25;;;;;;;9.02;85.75;100524.04;1655871;85;21280;-57
2021/11/08 01:56:05;;;;;;;35.75;24.07;;;;;;;9.04;85.68;100513.29;1665474;86;21366;-57
2021/11/08 01:59:13;;;;;;;36.08;24.65;;;;;;;9.06;85.59;100511.27;1655421;85;21373;-58
2021/11/08 02:02:19;;;;;;;40.12;25.68;;;;;;;9.08;85.48;100505.10;1654808;85;21243;-57
2021/11/08 02:05:25;;;;;;;37.53;25.35;;;;;;;9.09;85.43;100518.25;1655757;86;21193;-57
2021/11/08 02:08:37;;;;;;;35.28;24.90;;;;;;;9.09;85.32;100505.97;1655141;85;21244;-57
2021/11/08 02:11:41;;;;;;;35.28;25.08;;;;;;;9.10;85.28;100510.43;1654755;86;21267;-56
2021/11/08 02:14:48;;;;;;;37.05;25.25;;;;;;;9.11;85.25;100506.67;1655273;86;21216;-56
2021/11/08 02:17:55;;;;;;;36.73;24.07;;;;;;;9.12;85.26;100498.81;1655202;85;21731;-57
2021/11/08 02:21:06;;;;;;;33.95;23.90;;;;;;;9.15;85.29;100506.67;1655612;86;21240;-57
2021/11/08 02:24:16;;;;;;;38.08;24.32;;;;;;;9.15;85.28;100494.92;1656098;85;21339;-58
2021/11/08 02:27:20;;;;;;;33.92;23.90;;;;;;;9.16;85.27;100497.48;1655042;85;21256;-60
2021/11/08 02:30:27;;;;;;;38.88;25.08;;;;;;;9.16;85.27;100494.75;1655543;86;21346;-57
2021/11/08 02:33:34;;;;;;;31.50;23.92;;;;;;;9.18;85.29;100494.59;1655252;85;21224;-56
2021/11/08 02:36:44;;;;;;;35.35;24.75;;;;;;;9.18;85.35;100495.95;1655136;86;21236;-56
2021/11/08 02:39:50;;;;;;;37.67;24.95;;;;;;;9.19;85.39;100487.59;1656093;86;21363;-57
2021/11/08 02:42:55;;;;;;;36.10;23.83;;;;;;;9.21;85.42;100489.66;1663359;84;21358;-57
2021/11/08 02:46:14;;;;;;;33.50;24.63;;;;;;;9.22;85.40;100489.99;1655444;86;21343;-57
2021/11/08 02:49:18;;;;;;;38.88;25.72;;;;;;;9.24;85.41;100491.19;1653560;84;21247;-57
2021/11/08 02:52:26;;;;;;;36.38;25.50;;;;;;;9.24;85.35;100490.69;1657490;85;21383;-56
2021/11/08 02:55:32;;;;;;;39.55;25.00;;;;;;;9.25;85.37;100495.62;1651678;86;21371;-56
2021/11/08 02:58:38;;;;;;;36.50;25.50;;;;;;;9.24;85.32;100490.69;1652190;85;21391;-55
2021/11/08 03:01:48;;;;;;;34.27;24.75;;;;;;;9.25;85.32;100485.56;1651622;86;21402;-58
2021/11/08 03:04:54;;;;;;;38.60;25.35;;;;;;;9.26;85.34;100489.16;1651675;86;21217;-57
2021/11/08 03:08:00;;;;;;;39.15;24.90;;;;;;;9.28;85.35;100488.46;1655932;85;21264;-57
2021/11/08 03:11:07;;;;;;;35.80;26.30;;;;;;;9.28;85.29;100486.59;1652255;85;21352;-57
2021/11/08 03:14:24;;;;;;;36.42;25.08;;;;;;;9.28;85.29;100486.59;1653282;85;21370;-56
2021/11/08 03:17:27;;;;;;;35.88;24.55;;;;;;;9.31;85.32;100485.42;1656602;85;21383;-57
2021/11/08 03:20:31;;;;;;;36.85;25.77;;;;;;;9.31;85.32;100482.70;1652235;85;21355;-56
2021/11/08 03:23:38;;;;;;;42.80;25.82;;;;;;;9.32;85.38;100470.73;1652382;85;21395;-56
2021/11/08 03:26:48;;;;;;;37.13;26.35;;;;;;;9.32;85.42;100468.88;1652271;86;21355;-56
2021/11/08 03:29:53;;;;;;;36.83;26.52;;;;;;;9.34;85.43;100471.44;1651317;86;21347;-56
2021/11/08 03:33:00;;;;;;;39.75;26.90;;;;;;;9.34;85.48;100470.06;1652171;85;21371;-56
2021/11/08 03:36:06;;;;;;;36.85;26.45;;;;;;;9.35;85.53;100468.53;1654670;85;21337;-57
2021/11/08 03:39:14;;;;;;;41.00;28.12;;;;;;;9.33;85.59;100461.00;1652105;85;21245;-57
2021/11/08 03:42:24;;;;;;;43.98;26.15;;;;;;;9.34;85.67;100460.50;1659819;85;21359;-57
2021/11/08 03:45:33;;;;;;;41.23;26.62;;;;;;;9.32;85.80;100452.98;1660512;86;21216;-57
2021/11/08 03:48:39;;;;;;;38.58;26.77;;;;;;;9.31;85.94;100458.94;1651329;85;21391;-57
2021/11/08 03:51:45;;;;;;;37.20;26.20;;;;;;;9.34;86.13;100455.05;1655309;83;21737;-58
2021/11/08 03:55:03;;;;;;;39.92;26.65;;;;;;;9.35;86.25;100461.70;1654622;86;21224;-58
2021/11/08 03:58:10;;;;;;;38.95;26.23;;;;;;;9.36;86.38;100457.08;1678847;85;21244;-58
2021/11/08 04:01:17;;;;;;;40.12;28.80;;;;;;;9.37;86.52;100460.17;1677247;85;21231;-56
2021/11/08 04:04:24;;;;;;;45.92;27.93;;;;;;;9.37;86.59;100465.63;1683969;84;21184;-57
2021/11/08 04:07:29;;;;;;;41.55;26.70;;;;;;;9.35;86.79;100460.84;1677274;85;21262;-56
2021/11/08 04:10:35;;;;;;;44.30;27.00;;;;;;;9.34;87.02;100459.14;1683908;84;21196;-57
2021/11/08 04:13:42;;;;;;;45.28;28.73;;;;;;;9.34;87.66;100456.41;1677024;85;21212;-58
2021/11/08 04:16:52;;;;;;;41.15;27.73;;;;;;;9.34;88.14;100453.14;1677010;85;21208;-57
2021/11/08 04:19:57;;;;;;;44.53;27.95;;;;;;;9.34;88.54;100455.05;1683978;85;21583;-57
2021/11/08 04:23:03;;;;;;;41.90;28.45;;;;;;;9.32;88.77;100459.31;1683700;85;21274;-57
2021/11/08 04:26:09;;;;;;;45.17;28.25;;;;;;;9.29;88.96;100462.38;1676879;85;21227;-57
2021/11/08 04:29:16;;;;;;;49.05;29.52;;;;;;;9.31;89.17;100453.48;1683810;85;21251;-59
2021/11/08 04:32:27;;;;;;;47.58;27.48;;;;;;;9.32;89.32;100463.41;1684076;85;21231;-58
2021/11/08 04:38:53;;;;;;;53.13;30.12;;;;;;;9.29;89.60;100452.81;1677452;85;21259;-57
2021/11/08 05:29:55;;;;;;;50.12;30.55;;;;;;;9.46;91.74;100465.99;1687623;84;21428;-59
2021/11/08 05:31:53;;;;;;;48.08;29.15;;;;;;;9.48;91.66;100462.59;1687524;84;21343;-61
2021/11/08 05:34:59;;;;;;;47.05;29.72;;;;;;;9.50;91.70;100477.78;1659883;86;21365;-58
2021/11/08 05:38:09;;;;;;;49.95;28.38;;;;;;;9.52;91.72;100474.38;1669387;83;21679;-58
2021/11/08 05:41:11;;;;;;;47.13;29.02;;;;;;;9.56;91.78;100474.91;1677489;85;21298;-58
2021/11/08 05:44:17;;;;;;;44.13;27.85;;;;;;;9.60;91.86;100467.57;1676180;85;21222;-58
2021/11/08 05:47:23;;;;;;;42.17;28.27;;;;;;;9.65;91.89;100456.99;1660313;83;21886;-59
2021/11/08 05:50:31;;;;;;;45.90;28.70;;;;;;;9.71;91.88;100465.88;1670248;83;21361;-59
2021/11/08 05:53:38;;;;;;;44.77;29.85;;;;;;;9.76;91.82;100471.70;1692246;83;21252;-59
2021/11/08 06:50:37;;;;;;;54.70;31.68;;;;;;;10.13;92.92;100460.32;1630659;86;21264;-59
2021/11/08 06:53:46;;;;;;;53.28;30.75;;;;;;;10.12;93.17;100465.42;1635949;87;21252;-58
2021/11/08 07:00:09;;;;;;;55.83;30.85;;;;;;;10.10;93.70;100457.39;1628602;86;21321;-59
2021/11/08 07:03:16;;;;;;;61.83;33.18;;;;;;;10.12;93.95;100459.95;1668332;83;21617;-59
2021/11/08 07:06:22;;;;;;;59.30;32.03;;;;;;;10.12;94.18;100455.35;1665335;84;21248;-59
2021/11/08 07:09:29;;;;;;;62.45;31.40;;;;;;;10.14;94.39;100453.31;1667883;84;21739;-59
2021/11/08 07:12:35;;;;;;;54.88;30.48;;;;;;;10.17;94.59;100451.59;1667552;83;21425;-59
2021/11/08 07:15:43;;;;;;;61.60;29.72;;;;;;;10.20;94.76;100463.56;1656281;85;21197;-58
2021/11/08 07:18:48;;;;;;;57.27;29.02;;;;;;;10.23;94.98;100456.88;1671071;85;21739;-59
2021/11/08 07:21:54;;;;;;;60.23;30.57;;;;;;;10.27;95.22;100463.23;1632340;87;21225;-59
2021/11/08 07:25:00;;;;;;;56.73;29.07;;;;;;;10.33;95.46;100458.43;1651786;87;21321;-59
2021/11/08 07:28:10;;;;;;;60.38;28.87;;;;;;;10.39;95.66;100447.28;1652093;86;21243;-59
2021/11/08 07:31:15;;;;;;;56.85;28.30;;;;;;;10.46;95.87;100446.95;1671882;83;21235;-59
2021/11/08 07:34:24;;;;;;;57.35;27.80;;;;;;;10.51;96.02;100448.66;1653655;85;21579;-59
2021/11/08 07:37:31;;;;;;;58.42;28.47;;;;;;;10.59;96.16;100448.64;1662506;85;21962;-59
2021/11/08 07:40:35;;;;;;;55.58;27.32;;;;;;;10.70;96.29;100438.69;1668919;85;21341;-60
2021/11/08 07:43:41;;;;;;;56.92;28.10;;;;;;;10.80;96.22;100446.17;1662061;85;21939;-59
2021/11/08 07:46:48;;;;;;;54.13;28.75;;;;;;;10.84;96.16;100454.39;1660140;85;21313;-58
2021/11/08 07:49:57;;;;;;;54.05;29.02;;;;;;;10.87;96.07;100464.13;1673893;85;21744;-58
2021/11/08 07:53:03;;;;;;;57.43;28.52;;;;;;;10.91;96.08;100453.17;1661248;83;21360;-60
2021/11/08 07:56:08;;;;;;;50.17;28.07;;;;;;;10.92;95.96;100459.84;1660297;85;21273;-59
2021/11/08 07:59:13;;;;;;;54.45;29.92;;;;;;;10.97;95.98;100455.20;1672454;83;21238;-60
2021/11/08 08:02:21;;;;;;;59.90;29.90;;;;;;;10.99;95.89;100457.26;1671360;84;21232;-59
2021/11/08 08:05:28;;;;;;;52.73;28.02;;;;;;;10.99;95.77;100457.26;1666514;83;21575;-61
2021/11/08 08:08:35;;;;;;;54.55;28.05;;;;;;;11.02;95.69;100456.91;1694437;83;21818;-59
2021/11/08 08:11:41;;;;;;;53.90;30.88;;;;;;;11.04;95.61;100449.34;1676679;85;21213;-58
2021/11/08 08:14:48;;;;;;;57.27;28.35;;;;;;;11.09;95.60;100446.92;1653145;86;21224;-59
2021/11/08 08:17:56;;;;;;;56.75;28.95;;;;;;;11.14;95.54;100448.62;1673262;83;21208;-56
2021/11/08 08:21:02;;;;;;;52.15;29.25;;;;;;;11.22;95.46;100449.95;1701336;84;21172;-59
2021/11/08 08:24:11;;;;;;;57.30;30.10;;;;;;;11.30;95.26;100445.81;1705573;84;21759;-59
2021/11/08 08:27:17;;;;;;;47.65;27.22;;;;;;;11.38;95.05;100449.88;1662564;85;21225;-61
2021/11/08 08:30:24;;;;;;;51.70;28.17;;;;;;;11.43;94.73;100450.20;1686403;83;22077;-58
2021/11/08 08:33:31;;;;;;;48.48;28.83;;;;;;;11.45;94.31;100441.26;1702208;83;21236;-59
2021/11/08 08:36:36;;;;;;;55.33;31.12;;;;;;;11.49;94.16;100439.38;1693680;84;21823;-58
2021/11/08 08:39:41;;;;;;;52.70;29.10;;;;;;;11.51;93.84;100436.45;1650458;87;21215;-59
2021/11/08 08:42:47;;;;;;;50.90;29.77;;;;;;;11.52;93.69;100439.01;1651384;86;21207;-58
2021/11/08 08:45:53;;;;;;;52.10;31.05;;;;;;;11.54;93.47;100437.45;1651460;87;21787;-59
2021/11/08 08:48:59;;;;;;;56.18;30.65;;;;;;;11.55;93.41;100433.67;1670616;85;21761;-59
2021/11/08 08:52:07;;;;;;;56.70;30.05;;;;;;;11.58;93.27;100426.45;1669465;85;21231;-59
2021/11/08 08:55:14;;;;;;;48.98;29.02;;;;;;;11.67;93.25;100435.02;1668067;84;21262;-60
2021/11/08 08:58:20;;;;;;;50.90;30.52;;;;;;;11.74;93.00;100441.46;1663978;85;21250;-58
2021/11/08 09:01:27;;;;;;;49.95;29.70;;;;;;;11.80;92.78;100443.47;1648846;83;21227;-58
2021/11/08 09:04:35;;;;;;;44.70;29.07;;;;;;;11.86;92.61;100434.53;1673850;84;21296;-59
2021/11/08 09:07:42;;;;;;;51.98;30.30;;;;;;;11.97;92.48;100429.99;1673028;83;21224;-59
2021/11/08 09:10:49;;;;;;;45.45;30.88;;;;;;;12.13;92.30;100426.25;1657392;83;21221;-59
2021/11/08 09:14:00;;;;;;;46.50;27.15;;;;;;;12.22;91.70;100436.11;1638281;85;21268;-59
2021/11/08 09:17:03;;;;;;;38.73;25.12;;;;;;;12.25;91.00;100444.84;1666954;83;21781;-59
2021/11/08 09:20:13;;;;;;;34.80;24.60;;;;;;;12.22;89.88;100442.47;1658323;84;21850;-59
2021/11/08 09:23:18;;;;;;;37.13;25.60;;;;;;;12.20;89.09;100433.55;1678856;85;21796;-59
2021/11/08 09:26:24;;;;;;;34.63;24.98;;;;;;;12.16;88.34;100442.34;1661666;85;21220;-60
2021/11/08 09:29:30;;;;;;;35.00;23.77;;;;;;;12.08;87.97;100442.41;1651411;86;21268;-58
2021/11/08 09:32:35;;;;;;;32.85;22.37;;;;;;;12.06;87.44;100428.88;1658295;85;21334;-60
2021/11/08 09:35:46;;;;;;;35.95;25.10;;;;;;;12.12;86.83;100425.90;1667755;85;21293;-57
2021/11/08 09:38:54;;;;;;;32.55;24.65;;;;;;;12.21;86.37;100420.70;1656206;85;21225;-60
2021/11/08 09:42:14;;;;;;;32.80;24.20;;;;;;;12.34;86.19;100420.89;1665482;85;21781;-59
2021/11/08 09:45:23;;;;;;;35.48;24.07;;;;;;;12.49;85.81;100430.02;1666762;85;21228;-60
2021/11/08 09:48:28;;;;;;;30.65;23.62;;;;;;;12.61;84.84;100417.02;1687439;84;21214;-60
2021/11/08 09:51:33;;;;;;;36.00;24.02;;;;;;;12.69;83.87;100418.30;1690436;83;21204;-58
2021/11/08 09:54:40;;;;;;;33.58;23.38;;;;;;;12.74;82.91;100425.97;1667745;84;21373;-60
2021/11/08 09:57:45;;;;;;;31.40;21.80;;;;;;;12.80;81.84;100422.47;1662470;84;21743;-60
2021/11/08 10:00:59;;;;;;;30.30;23.18;;;;;;;12.83;80.66;100422.95;1679681;84;21342;-60
2021/11/08 10:04:04;;;;;;;31.68;22.67;;;;;;;12.93;80.13;100422.15;1672475;84;21232;-61
2021/11/08 10:07:12;;;;;;;27.37;20.68;;;;;;;13.03;79.74;100426.84;1686829;85;21426;-58
2021/11/08 10:10:17;;;;;;;30.30;21.70;;;;;;;13.12;78.94;100428.47;1673749;85;21353;-58
2021/11/08 10:13:25;;;;;;;30.15;21.68;;;;;;;13.14;77.92;100430.52;1676370;83;21774;-60
2021/11/08 10:16:37;;;;;;;24.43;19.05;;;;;;;13.17;77.77;100431.51;1646619;85;21603;-59
2021/11/08 10:19:42;;;;;;;25.05;18.62;;;;;;;13.21;77.39;100444.32;1653675;85;21202;-59
2021/11/08 10:22:50;;;;;;;23.40;18.62;;;;;;;13.21;76.59;100452.05;1680397;84;21270;-60
2021/11/08 10:25:55;;;;;;;25.60;18.07;;;;;;;13.16;75.60;100464.14;1646610;85;21585;-59
2021/11/08 10:29:06;;;;;;;23.32;16.60;;;;;;;13.12;75.17;100460.08;1668844;83;21240;-58
2021/11/08 10:32:16;;;;;;;23.10;16.45;;;;;;;13.11;74.67;100459.73;1684923;84;21231;-58
2021/11/08 10:35:21;;;;;;;20.52;14.70;;;;;;;13.17;74.21;100465.87;1685053;84;21710;-58
2021/11/08 10:38:32;;;;;;;21.62;14.90;;;;;;;13.20;72.96;100465.99;1685919;84;21359;-59
2021/11/08 10:41:40;;;;;;;18.10;14.28;;;;;;;13.16;72.27;100463.31;1675507;85;21358;-60
2021/11/08 10:44:45;;;;;;;17.20;12.70;;;;;;;13.15;71.74;100455.58;1658562;85;21278;-59
2021/11/08 10:47:52;;;;;;;22.17;15.25;;;;;;;13.18;70.59;100451.06;1654902;86;21292;-58
2021/11/08 10:50:59;;;;;;;19.35;13.28;;;;;;;13.21;70.08;100458.06;1654696;86;21375;-58
2021/11/08 10:54:12;;;;;;;19.10;13.53;;;;;;;13.25;69.75;100450.65;1654742;86;21426;-59
2021/11/08 10:57:20;;;;;;;22.55;14.05;;;;;;;13.31;69.05;100441.63;1665050;84;21377;-59
2021/11/08 11:00:26;;;;;;;26.27;14.13;;;;;;;13.27;67.89;100451.28;1649812;86;21593;-59
2021/11/08 11:03:33;;;;;;;21.97;13.65;;;;;;;13.18;67.67;100450.20;1660708;84;21215;-59
2021/11/08 11:06:48;;;;;;;19.98;14.23;;;;;;;13.08;67.54;100458.73;1655480;84;21721;-59
2021/11/08 11:09:56;;;;;;;21.82;13.43;;;;;;;13.00;67.24;100451.96;1644633;87;21233;-58
2021/11/08 11:13:01;;;;;;;19.40;13.72;;;;;;;12.93;67.36;100459.24;1667668;84;21285;-58
2021/11/08 11:16:10;;;;;;;19.60;14.33;;;;;;;12.89;66.99;100465.31;1661032;85;21614;-59
2021/11/08 11:19:20;;;;;;;19.77;13.25;;;;;;;12.84;66.96;100463.13;1670440;85;21220;-60
2021/11/08 11:22:30;;;;;;;19.57;12.65;;;;;;;12.82;66.54;100467.95;1669547;85;21244;-60
2021/11/08 11:25:38;;;;;;;20.65;13.48;;;;;;;12.79;66.31;100470.22;1641042;87;21374;-59
2021/11/08 11:28:46;;;;;;;21.73;13.85;;;;;;;12.76;66.35;100460.47;1663452;85;21240;-59
2021/11/08 11:31:52;;;;;;;26.85;17.15;;;;;;;12.76;66.51;100473.34;1670473;84;21761;-59
2021/11/08 11:34:57;;;;;;;26.27;16.97;;;;;;;12.73;66.79;100479.22;1671728;85;21220;-57
2021/11/08 11:38:13;;;;;;;21.48;14.60;;;;;;;12.70;66.98;100484.55;1671323;86;21473;-58
2021/11/08 11:41:28;;;;;;;21.40;14.90;;;;;;;12.69;67.21;100499.33;1670265;84;21324;-58
2021/11/08 11:44:35;;;;;;;19.37;15.10;;;;;;;12.61;67.15;100500.78;1699357;84;22033;-59
2021/11/08 11:47:45;;;;;;;23.07;16.42;;;;;;;12.55;67.44;100494.66;1648971;85;21248;-57
2021/11/08 11:50:50;;;;;;;24.98;15.70;;;;;;;12.47;67.57;100502.97;1619065;86;21236;-58
2021/11/08 11:53:56;;;;;;;25.20;17.25;;;;;;;12.43;67.77;100489.80;1673834;85;21237;-60
2021/11/08 11:57:04;;;;;;;26.23;16.80;;;;;;;12.39;68.24;100487.94;1657999;84;21840;-57
2021/11/08 12:00:13;;;;;;;21.40;15.15;;;;;;;12.38;68.54;100484.01;1662188;85;21963;-60
2021/11/08 12:03:19;;;;;;;24.63;15.93;;;;;;;12.33;68.77;100475.47;1682666;84;21584;-58
2021/11/08 12:06:31;;;;;;;21.70;15.63;;;;;;;12.28;69.11;100480.14;1672300;81;21810;-57
2021/11/08 12:09:41;;;;;;;24.35;16.82;;;;;;;12.23;69.45;100482.59;1669357;86;21228;-58
2021/11/08 12:12:47;;;;;;;24.23;16.45;;;;;;;12.23;69.73;100490.81;1645182;86;21254;-59
2021/11/08 12:15:52;;;;;;;24.07;16.15;;;;;;;12.20;69.93;100489.81;1642370;85;21204;-58
2021/11/08 12:19:00;;;;;;;28.90;17.12;;;;;;;12.18;70.04;100504.77;1644632;85;21247;-59
2021/11/08 12:22:07;;;;;;;24.82;16.20;;;;;;;12.12;70.14;100492.62;1615669;88;21247;-57
2021/11/08 12:25:22;;;;;;;29.65;18.30;;;;;;;12.06;70.46;100476.90;1640768;87;21796;-57
2021/11/08 12:28:35;;;;;;;27.07;16.87;;;;;;;12.02;70.85;100478.28;1625554;85;21732;-58
2021/11/08 12:31:42;;;;;;;21.48;16.32;;;;;;;11.97;71.22;100476.09;1642915;87;21208;-57
2021/11/08 12:34:55;;;;;;;26.10;17.50;;;;;;;11.98;71.38;100489.30;1641508;87;21243;-59
2021/11/08 12:37:57;;;;;;;26.27;17.95;;;;;;;11.96;71.48;100485.88;1642138;87;21283;-60
2021/11/08 12:41:25;;;;;;;33.28;18.77;;;;;;;11.91;71.61;100497.91;1642349;87;21797;-59
2021/11/08 12:44:34;;;;;;;30.15;19.20;;;;;;;11.84;71.90;100497.78;1645536;85;21279;-59
2021/11/08 12:47:40;;;;;;;27.27;18.98;;;;;;;11.77;72.36;100495.44;1644387;86;21610;-58
2021/11/08 12:50:56;;;;;;;29.02;19.82;;;;;;;11.72;72.81;100494.26;1640942;87;21336;-58
2021/11/08 12:54:17;;;;;;;28.70;19.00;;;;;;;11.69;73.21;100509.70;1632084;85;21877;-58
2021/11/08 12:57:25;;;;;;;30.97;19.05;;;;;;;11.65;73.54;100503.72;1615885;88;22110;-59
2021/11/08 13:00:33;;;;;;;27.62;17.80;;;;;;;11.59;73.82;100496.19;1641771;87;21219;-59
2021/11/08 13:03:45;;;;;;;28.32;19.23;;;;;;;11.53;74.04;100516.60;1641503;87;21788;-57
2021/11/08 13:06:54;;;;;;;30.80;18.65;;;;;;;11.45;74.34;100510.66;1661293;82;21214;-59
2021/11/08 13:10:03;;;;;;;31.70;19.55;;;;;;;11.41;74.63;100513.94;1667221;83;21782;-58
2021/11/08 13:13:09;;;;;;;26.20;17.42;;;;;;;11.35;74.75;100523.70;1664294;85;21213;-58
2021/11/08 13:16:18;;;;;;;24.80;17.70;;;;;;;11.31;74.96;100522.88;1664337;84;21201;-59
2021/11/08 13:19:24;;;;;;;26.70;18.75;;;;;;;11.28;75.12;100515.88;1658999;85;21842;-58
2021/11/08 13:22:39;;;;;;;29.70;18.65;;;;;;;11.22;75.13;100517.09;1659094;84;21798;-58
2021/11/08 13:25:50;;;;;;;34.05;20.50;;;;;;;11.17;75.25;100536.80;1664194;85;21221;-58
2021/11/08 13:28:55;;;;;;;32.58;19.65;;;;;;;11.13;75.48;100547.76;1655512;84;21786;-58
2021/11/08 13:32:01;;;;;;;31.27;19.55;;;;;;;11.09;75.75;100558.74;1665653;83;21749;-58
2021/11/08 13:35:26;;;;;;;32.23;19.52;;;;;;;11.08;75.96;100558.92;1681560;83;21219;-58
2021/11/08 13:38:43;;;;;;;30.55;19.35;;;;;;;11.03;76.16;100561.33;1650639;86;21239;-59
2021/11/08 13:41:49;;;;;;;31.52;19.67;;;;;;;10.99;76.38;100569.03;1661436;83;21799;-59
2021/11/08 13:44:56;;;;;;;46.18;26.05;;;;;;;10.97;76.55;100566.13;1662321;84;21233;-58
2021/11/08 13:48:00;;;;;;;28.00;20.23;;;;;;;10.92;76.67;100570.77;1660886;86;21298;-58
2021/11/08 13:51:12;;;;;;;25.70;17.45;;;;;;;10.90;76.81;100581.03;1661221;85;22024;-58
2021/11/08 13:54:34;;;;;;;29.80;18.90;;;;;;;10.88;76.86;100579.51;1662735;86;21803;-58
2021/11/08 13:57:50;;;;;;;29.75;18.32;;;;;;;10.83;76.92;100577.27;1662728;86;21246;-59
2021/11/08 14:01:02;;;;;;;25.12;17.10;;;;;;;10.78;76.96;100570.61;1669396;84;21215;-59
2021/11/08 14:04:19;;;;;;;24.82;17.87;;;;;;;10.73;77.09;100560.69;1676474;85;21670;-57
2021/11/08 14:07:36;;;;;;;27.15;18.85;;;;;;;10.69;77.22;100563.44;1680043;83;21287;-58
2021/11/08 14:10:47;;;;;;;33.15;22.85;;;;;;;10.64;77.35;100574.05;1693813;83;21642;-60
2021/11/08 14:13:53;;;;;;;44.95;30.25;;;;;;;10.61;77.52;100584.80;1678678;84;21231;-59
2021/11/08 14:17:02;;;;;;;36.75;25.00;;;;;;;10.57;77.72;100576.61;1669512;85;21240;-59
2021/11/08 14:20:17;;;;;;;45.20;31.60;;;;;;;10.55;77.93;100580.02;1687748;85;21337;-59
2021/11/08 14:23:23;;;;;;;49.13;31.60;;;;;;;10.55;78.13;100581.39;1687909;84;21276;-59
2021/11/08 14:26:29;;;;;;;34.40;22.10;;;;;;;10.53;78.15;100585.67;1675781;85;21368;-58
2021/11/08 14:29:37;;;;;;;43.20;28.40;;;;;;;10.51;77.89;100590.45;1668334;85;21238;-58
2021/11/08 14:32:46;;;;;;;51.10;32.05;;;;;;;10.49;77.02;100608.08;1675663;85;21910;-60
2021/11/08 14:35:54;;;;;;;47.60;29.50;;;;;;;10.45;76.33;100643.14;1675991;85;21383;-59
2021/11/08 14:39:05;;;;;;;46.65;29.50;;;;;;;10.43;75.63;100627.92;1687361;83;21721;-58
2021/11/08 14:42:11;;;;;;;46.25;28.30;;;;;;;10.40;74.95;100631.00;1659917;86;21267;-59
2021/11/08 14:45:30;;;;;;;30.90;19.52;;;;;;;10.36;74.65;100632.34;1660714;86;21263;-59
2021/11/08 14:48:40;;;;;;;24.72;17.98;;;;;;;10.33;74.25;100618.50;1660504;85;21413;-59
2021/11/08 14:51:47;;;;;;;50.28;31.02;;;;;;;10.31;73.98;100588.20;1685937;84;21871;-59
2021/11/08 14:54:59;;;;;;;58.17;35.35;;;;;;;10.29;73.95;100608.06;1665437;85;21770;-58
2021/11/08 14:58:08;;;;;;;36.25;23.98;;;;;;;10.28;73.83;100594.89;1686930;83;21389;-59
2021/11/08 15:01:13;;;;;;;28.38;19.17;;;;;;;10.26;73.72;100583.25;1685666;84;21505;-60
2021/11/08 15:04:28;;;;;;;37.40;23.47;;;;;;;10.26;73.76;100579.14;1686901;84;21262;-60
2021/11/08 15:07:42;;;;;;;27.90;18.30;;;;;;;10.26;73.74;100586.48;1678261;84;21791;-59
2021/11/08 15:10:50;;;;;;;29.35;22.27;;;;;;;10.25;73.68;100584.78;1643914;86;21205;-57
2021/11/08 15:13:56;;;;;;;30.55;21.10;;;;;;;10.24;73.61;100583.92;1627443;87;21241;-58
2021/11/08 15:17:03;;;;;;;31.55;20.62;;;;;;;10.21;73.64;100578.79;1662523;85;21681;-57
2021/11/08 15:20:20;;;;;;;30.15;22.65;;;;;;;10.19;73.72;100602.75;1682288;85;21333;-59
2021/11/08 15:23:42;;;;;;;28.17;19.35;;;;;;;10.17;73.73;100597.08;1682819;85;21255;-58
2021/11/08 15:26:57;;;;;;;35.00;22.80;;;;;;;10.15;73.84;100608.69;1681683;85;21210;-58
2021/11/08 15:30:12;;;;;;;53.17;32.75;;;;;;;10.11;73.95;100605.47;1678478;85;21211;-58
2021/11/08 15:33:24;;;;;;;36.05;24.50;;;;;;;10.09;74.12;100615.70;1662465;85;21784;-58
2021/11/08 15:36:39;;;;;;;37.67;24.10;;;;;;;10.06;74.29;100617.88;1647959;86;21213;-57
2021/11/08 15:39:46;;;;;;;48.02;27.07;;;;;;;10.00;74.42;100604.88;1648114;87;21226;-57
2021/11/08 15:42:51;;;;;;;55.75;37.30;;;;;;;9.94;74.60;100606.39;1667504;85;21265;-59
2021/11/08 15:46:01;;;;;;;46.37;26.48;;;;;;;9.89;74.79;100621.09;1670428;85;21187;-59
2021/11/08 15:49:11;;;;;;;40.80;26.68;;;;;;;9.85;74.97;100620.20;1680688;84;21216;-58
2021/11/08 15:52:14;;;;;;;57.80;28.70;;;;;;;9.82;75.12;100622.77;1668968;85;21208;-58
2021/11/08 15:55:23;;;;;;;66.45;37.40;;;;;;;9.78;75.25;100635.06;1665055;85;21203;-58
2021/11/08 15:58:27;;;;;;;67.62;38.58;;;;;;;9.76;75.38;100663.07;1673753;85;21281;-58
2021/11/08 16:01:34;;;;;;;40.67;25.65;;;;;;;9.74;75.50;100670.57;1668876;85;21262;-59
2021/11/08 16:04:40;;;;;;;44.93;25.10;;;;;;;9.70;75.63;100673.30;1671249;85;21215;-59
2021/11/08 16:07:47;;;;;;;47.85;27.98;;;;;;;9.68;75.66;100690.36;1662441;85;21246;-58